Decoded Metar for OBBI (BAHRAIN in BAHRAIN) (IATA:BAH) | Meteo·Mobile Aviation Weather
aviador You're here:

OBBI Decoded Metar

BAHRAIN in BAHRAIN
Report Time2019-01-17 00:00:00
UTC Time2019-01-17 00:08:05
Flight Rules vfr VFR
Wind140° at 15 Gusting to 25 kt
W.Decomp.*RWY 12: 14.3 kt HW 4.6 kt RCW
W.Rank140° ranks 20
Current wind is above 140° avg. (6.2)
Visibility9999 m
Phenomena:N/A
Clouds:N/A
Expected CloudBase > 1,600 ft AGL from Temp-Dew spread
CeilingNone
Temp21°C (ISA +6)
Dew Point17°C (78% RH)
AAT18.0°C
QNH1010 hPa
Density Alt1,066 ft
Elevation7 ft
Report Wrong Elevation
Raw Report
METAR OBBI 170000Z 14015G25KT CAVOK 21/17 Q1010 NOSIG=####018000088####
SABZ24 SBCG 170000

Extra information for OBBI:More info

Metar Taf Metar & Taf Last 4 Metars F.Rules Stats Wind Profile Meteogram Temp Stats Airport Information Weather charts Add Link Nearby VenuesMetar ALERT Operation Metar Decoded Social comments